Overview Statistics Trail Chart Weather Telemetry Raw packets
 

This is the latest recevied weather packets stored in our database for station/object KF5VOI. If no packets are shown the sender has not sent any weather packets the latest 10 day(s).

<< 1 2 3 4 >>
Time Temp. Humidity Pressure Rain* Wind** Luminosity Snow
1788575195 27.78° C 90% 1015.6 hPa 0 mm - - -
1788573395 27.78° C 96% 1015.3 hPa 0 mm - - -
1788571595 28.33° C 94% 1015.1 hPa 0 mm - - -
1788567995 29.44° C 89% 1015.2 hPa 0 mm - - -
1788564395 32.22° C 80% 1014.9 hPa 0 mm - - -
1788562595 33.89° C 74% 1014.7 hPa 0 mm - - -
1788560795 33.33° C 76% 1014.7 hPa 0 mm - - -
1788558995 33.33° C 76% 1014.8 hPa 0 mm - - -
1788557195 32.78° C 76% 1014.9 hPa 0 mm - - -
1788555395 33.33° C 74% 1014.7 hPa 0 mm - - -
1788553595 33.33° C 75% 1015 hPa 0 mm - - -
1788551795 33.33° C 75% 1015.3 hPa 0 mm - - -
1788549995 32.78° C 78% 1015.8 hPa 0 mm - - -
1788546395 32.22° C 81% 1016.8 hPa 0 mm - - -
1788544625 32.22° C 81% 1017 hPa 0 mm - - -
1788542795 30° C 88% 1017 hPa 0 mm - - -
1788540995 29.44° C 91% 1017.2 hPa 0 mm - - -
1788535595 27.78° C 99% 1017.4 hPa 0 mm - - -
1788531995 25.56° C 99% 1017.2 hPa 0 mm - - -
1788528395 23.33° C 99% 1016.6 hPa 0.25 mm - - -
1788524795 22.22° C 99% 1016.4 hPa 25.15 mm - - -
1788522995 22.78° C 99% 1016.4 hPa 38.86 mm - - -
1788521195 22.78° C 99% 1015.8 hPa 4.32 mm - - -
1788519407 26.11° C 98% 1015.8 hPa 0 mm - - -
1788517595 26.67° C 99% 1015.2 hPa 0 mm - - -

* Rain latest hour (hover to see other rain measurements)
** Current wind speed in m/s (hover to see current wind gust speed)